Time;durP1;ratioP1;P1;durP2;ratioP2;P2;SDS_P1;SDS_P2;PMS_P1;PMS_P2;Temp;Humidity;BMP_temperature;BMP_pressure;BME280_temperature;BME280_humidity;BME280_pressure;Samples;Min_cycle;Max_cycle;Signal;HPM_P1;HPM_P2
2023/01/16 00:00:01;;;;;;;0.40;0.40;;;3.20;99.60;;;;;;5053376;28;20197;-69
2023/01/16 00:02:26;;;;;;;0.40;0.40;;;3.20;99.50;;;;;;5053170;28;20206;-70
2023/01/16 00:04:52;;;;;;;0.33;0.33;;;3.20;99.70;;;;;;5053444;28;20177;-70
2023/01/16 00:07:17;;;;;;;0.50;0.50;;;3.30;99.80;;;;;;5053254;28;20197;-69
2023/01/16 00:09:43;;;;;;;0.30;0.30;;;3.30;99.70;;;;;;5053144;28;20198;-69
2023/01/16 00:12:09;;;;;;;0.40;0.40;;;3.40;99.60;;;;;;5051759;28;20174;-70
2023/01/16 00:14:34;;;;;;;0.40;0.40;;;3.30;99.20;;;;;;5053309;28;20217;-70
2023/01/16 00:17:00;;;;;;;1.33;1.33;;;3.30;99.00;;;;;;5053263;28;20320;-71
2023/01/16 00:19:25;;;;;;;0.40;0.40;;;3.10;99.00;;;;;;5053271;28;20186;-70
2023/01/16 00:21:51;;;;;;;0.30;0.30;;;3.10;99.10;;;;;;5053197;28;20216;-69
2023/01/16 00:24:17;;;;;;;0.40;0.40;;;3.00;99.20;;;;;;5052976;28;20627;-71
2023/01/16 00:26:42;;;;;;;0.40;0.40;;;3.00;99.30;;;;;;5051861;28;20178;-69
2023/01/16 00:29:08;;;;;;;0.40;0.40;;;3.00;99.30;;;;;;5052951;28;20252;-70
2023/01/16 00:31:33;;;;;;;0.40;0.40;;;3.20;99.50;;;;;;5056840;28;20197;-69
2023/01/16 00:33:59;;;;;;;0.40;0.40;;;3.20;99.60;;;;;;5056918;28;20162;-71
2023/01/16 00:36:25;;;;;;;0.30;0.30;;;3.30;99.40;;;;;;5057226;28;20202;-69
2023/01/16 00:38:50;;;;;;;0.40;0.40;;;3.20;99.40;;;;;;5057049;28;20197;-69
2023/01/16 00:41:16;;;;;;;0.40;0.40;;;3.20;99.20;;;;;;5056917;28;20204;-70
2023/01/16 00:43:42;;;;;;;0.30;0.30;;;3.00;99.00;;;;;;5056913;28;20811;-69
2023/01/16 00:46:07;;;;;;;0.40;0.40;;;3.00;99.10;;;;;;5056819;28;20173;-70
2023/01/16 00:48:33;;;;;;;0.50;0.50;;;3.00;99.30;;;;;;5056719;28;20190;-71
2023/01/16 00:50:58;;;;;;;0.40;0.40;;;3.10;99.30;;;;;;5056903;28;20175;-70
2023/01/16 00:53:24;;;;;;;0.30;0.30;;;3.10;99.20;;;;;;5056431;28;20173;-70
2023/01/16 00:55:53;;;;;;;0.40;0.40;;;3.30;99.40;;;;;;5056866;28;20692;-71
2023/01/16 00:58:18;;;;;;;0.30;0.30;;;3.30;99.40;;;;;;5056719;28;20692;-70
2023/01/16 01:00:45;;;;;;;0.38;0.38;;;3.30;99.50;;;;;;5056726;28;20202;-71
2023/01/16 01:03:11;;;;;;;0.50;0.50;;;3.30;99.30;;;;;;5055083;28;20174;-69
2023/01/16 01:05:38;;;;;;;0.30;0.30;;;3.30;99.30;;;;;;5056576;28;20232;-70
2023/01/16 01:08:04;;;;;;;0.38;0.38;;;3.30;99.10;;;;;;5056326;28;20424;-71
2023/01/16 01:10:30;;;;;;;0.30;0.30;;;3.40;99.20;;;;;;5055008;28;20213;-70
2023/01/16 01:12:56;;;;;;;0.40;0.40;;;3.40;98.90;;;;;;5056227;28;20174;-70
2023/01/16 01:15:23;;;;;;;0.40;0.40;;;3.20;98.60;;;;;;5056517;28;20541;-70
2023/01/16 01:17:49;;;;;;;0.43;0.43;;;3.10;98.90;;;;;;5056176;28;20215;-69
2023/01/16 01:20:15;;;;;;;0.40;0.40;;;3.10;99.00;;;;;;5056087;28;20660;-68
2023/01/16 01:22:40;;;;;;;0.30;0.30;;;3.10;99.30;;;;;;5055986;28;20404;-70
2023/01/16 01:25:06;;;;;;;0.63;0.50;;;3.00;99.00;;;;;;5056516;28;20175;-69
2023/01/16 01:27:32;;;;;;;0.40;0.40;;;3.00;99.20;;;;;;5055969;28;20197;-69
2023/01/16 01:29:57;;;;;;;0.30;0.30;;;3.00;99.30;;;;;;5056028;28;20451;-70
2023/01/16 01:32:23;;;;;;;0.40;0.40;;;3.00;99.20;;;;;;5055828;28;20630;-69
2023/01/16 01:34:48;;;;;;;0.40;0.40;;;3.00;99.10;;;;;;5056068;28;20259;-69
2023/01/16 01:37:14;;;;;;;0.40;0.40;;;3.10;99.40;;;;;;5055979;28;20261;-69
2023/01/16 01:39:39;;;;;;;0.90;0.87;;;3.20;99.40;;;;;;5055816;28;20249;-70
2023/01/16 01:44:55;;;;;;;0.40;0.40;;;3.50;99.20;;;;;;5055972;28;20204;-70
2023/01/16 01:47:33;;;;;;;0.30;0.30;;;3.50;99.10;;;;;;5055627;28;20201;-70
2023/01/16 01:50:03;;;;;;;0.40;0.40;;;3.50;99.30;;;;;;5055787;28;20202;-69
2023/01/16 01:52:31;;;;;;;0.40;0.40;;;3.40;99.10;;;;;;5055520;28;20182;-70
2023/01/16 01:55:02;;;;;;;0.40;0.40;;;3.40;99.00;;;;;;5055801;28;20176;-70
2023/01/16 01:57:42;;;;;;;0.30;0.30;;;3.30;98.90;;;;;;5055387;28;20562;-69
2023/01/16 02:00:18;;;;;;;0.40;0.40;;;3.30;98.80;;;;;;5055613;28;20231;-69
2023/01/16 02:02:55;;;;;;;0.50;0.50;;;3.30;98.70;;;;;;5055443;28;20264;-70
2023/01/16 02:05:25;;;;;;;0.30;0.30;;;3.30;98.60;;;;;;5055590;28;20578;-68
2023/01/16 02:07:52;;;;;;;0.40;0.40;;;3.40;98.70;;;;;;5055351;28;20661;-70
2023/01/16 02:10:36;;;;;;;0.40;0.40;;;3.40;98.40;;;;;;5055201;28;20194;-68
2023/01/16 02:13:02;;;;;;;0.40;0.40;;;3.30;98.70;;;;;;5055326;28;20232;-68
2023/01/16 02:15:28;;;;;;;0.40;0.40;;;3.40;99.10;;;;;;5055185;28;20166;-69
2023/01/16 02:21:04;;;;;;;0.40;0.40;;;3.40;99.30;;;;;;5054988;28;20233;-70
2023/01/16 02:23:55;;;;;;;0.40;0.40;;;3.50;98.90;;;;;;5054757;28;20178;-69
2023/01/16 02:26:39;;;;;;;0.30;0.30;;;3.50;98.90;;;;;;5055032;28;20171;-68
2023/01/16 02:29:41;;;;;;;0.45;0.45;;;3.40;98.50;;;;;;5054723;28;20220;-70
2023/01/16 02:32:20;;;;;;;0.38;0.38;;;3.30;98.60;;;;;;5054709;28;20678;-68
2023/01/16 02:35:14;;;;;;;0.40;0.40;;;3.30;98.40;;;;;;5054920;28;20174;-69
2023/01/16 02:37:48;;;;;;;0.40;0.40;;;3.20;98.30;;;;;;5054785;28;20591;-70
2023/01/16 02:40:17;;;;;;;0.40;0.40;;;3.10;98.20;;;;;;5055094;28;20194;-70
2023/01/16 02:42:55;;;;;;;0.40;0.40;;;3.10;98.40;;;;;;5054619;28;20167;-68
2023/01/16 02:45:39;;;;;;;0.30;0.30;;;3.00;98.40;;;;;;5054604;28;20180;-69
2023/01/16 02:48:16;;;;;;;0.30;0.30;;;3.00;98.60;;;;;;5054392;28;20682;-70
2023/01/16 02:50:45;;;;;;;0.30;0.30;;;3.10;98.80;;;;;;5054632;28;20248;-70
2023/01/16 02:53:22;;;;;;;0.30;0.30;;;3.10;98.60;;;;;;5054153;28;20166;-70
2023/01/16 02:55:57;;;;;;;0.40;0.40;;;3.10;98.80;;;;;;5054464;28;20672;-69
2023/01/16 02:58:26;;;;;;;0.47;0.47;;;3.20;99.20;;;;;;5052928;28;20670;-69
2023/01/16 03:00:57;;;;;;;0.32;0.32;;;3.30;98.90;;;;;;5054463;28;20587;-68
2023/01/16 03:03:49;;;;;;;0.40;0.40;;;3.40;98.70;;;;;;5053732;28;20170;-70
2023/01/16 03:06:42;;;;;;;0.38;0.38;;;3.30;98.40;;;;;;5054128;28;20167;-68
2023/01/16 03:09:45;;;;;;;0.40;0.40;;;3.40;98.60;;;;;;5053709;28;20289;-70
2023/01/16 03:12:22;;;;;;;0.30;0.30;;;3.30;98.60;;;;;;5053830;28;20253;-68
2023/01/16 03:14:53;;;;;;;0.35;0.35;;;3.40;98.70;;;;;;5054009;28;20530;-68
2023/01/16 03:17:37;;;;;;;0.30;0.30;;;3.40;98.60;;;;;;5053760;28;20193;-68
2023/01/16 03:20:34;;;;;;;0.40;0.40;;;3.50;98.60;;;;;;5053789;28;20189;-68
2023/01/16 03:23:06;;;;;;;0.35;0.35;;;3.30;98.30;;;;;;5053690;28;20173;-69
2023/01/16 03:25:56;;;;;;;0.40;0.40;;;3.30;98.40;;;;;;5054012;28;20166;-69
2023/01/16 03:28:29;;;;;;;0.40;0.40;;;3.20;98.50;;;;;;5053883;28;20194;-70
2023/01/16 03:31:05;;;;;;;0.40;0.40;;;3.10;98.80;;;;;;5053959;28;20206;-70
2023/01/16 03:33:44;;;;;;;0.40;0.40;;;3.00;98.90;;;;;;5053715;28;20170;-70
2023/01/16 03:36:15;;;;;;;0.38;0.38;;;3.00;99.00;;;;;;5053850;28;20196;-68
2023/01/16 03:38:44;;;;;;;0.30;0.30;;;3.00;99.10;;;;;;5053494;28;20286;-69
2023/01/16 03:41:14;;;;;;;0.40;0.40;;;2.90;99.50;;;;;;5053601;28;20179;-69
2023/01/16 03:43:44;;;;;;;0.30;0.30;;;2.90;99.60;;;;;;5053437;28;20188;-69
2023/01/16 03:46:19;;;;;;;0.30;0.30;;;2.80;99.60;;;;;;5053670;28;20170;-70
2023/01/16 03:48:53;;;;;;;0.30;0.30;;;2.80;99.70;;;;;;5052032;28;20212;-69
2023/01/16 03:51:23;;;;;;;0.40;0.40;;;2.80;99.80;;;;;;5053637;28;20173;-69
2023/01/16 03:54:15;;;;;;;0.30;0.30;;;2.70;99.80;;;;;;5053330;28;20576;-70
2023/01/16 03:57:10;;;;;;;0.30;0.30;;;2.70;99.90;;;;;;5044825;28;20269;-69
2023/01/16 03:59:37;;;;;;;0.38;0.38;;;2.50;99.90;;;;;;5050217;28;20702;-70
2023/01/16 04:02:18;;;;;;;0.30;0.30;;;2.40;99.90;;;;;;5053336;28;20591;-68
2023/01/16 04:05:05;;;;;;;0.30;0.30;;;2.30;99.90;;;;;;5052961;28;20170;-70
2023/01/16 04:07:38;;;;;;;0.30;0.30;;;2.20;99.90;;;;;;5053230;28;20195;-70
2023/01/16 04:10:09;;;;;;;0.30;0.30;;;2.20;99.90;;;;;;5053400;28;20203;-68
2023/01/16 04:12:43;;;;;;;0.30;0.30;;;2.20;99.90;;;;;;5053163;28;20254;-70
2023/01/16 04:15:10;;;;;;;0.38;0.38;;;2.10;99.90;;;;;;5053441;28;20575;-69
2023/01/16 04:17:38;;;;;;;0.60;0.57;;;1.90;99.90;;;;;;5053211;28;20193;-70
2023/01/16 04:20:06;;;;;;;0.30;0.30;;;2.00;99.90;;;;;;5051712;28;20192;-69
2023/01/16 04:22:32;;;;;;;0.30;0.30;;;2.00;99.90;;;;;;5052869;28;20168;-69
2023/01/16 04:25:00;;;;;;;0.30;0.30;;;2.00;99.90;;;;;;5053148;28;20183;-69
2023/01/16 04:27:27;;;;;;;2.53;2.30;;;1.90;99.90;;;;;;5053002;28;20454;-70
2023/01/16 04:29:53;;;;;;;0.40;0.40;;;1.90;99.90;;;;;;5052951;28;20198;-70
2023/01/16 04:32:19;;;;;;;0.30;0.30;;;2.00;99.90;;;;;;5053285;28;20158;-70
2023/01/16 04:34:44;;;;;;;0.30;0.30;;;2.00;99.90;;;;;;5053234;28;20581;-69
2023/01/16 04:37:15;;;;;;;0.40;0.40;;;1.90;99.90;;;;;;5051692;28;20228;-70
2023/01/16 04:39:40;;;;;;;0.40;0.40;;;1.80;99.90;;;;;;5053072;28;20164;-69
2023/01/16 04:42:07;;;;;;;0.40;0.40;;;1.80;99.90;;;;;;5052973;28;20653;-69
2023/01/16 04:44:33;;;;;;;0.30;0.30;;;1.90;99.90;;;;;;5053045;28;20703;-68
2023/01/16 04:46:59;;;;;;;0.40;0.40;;;1.90;99.90;;;;;;5053202;28;20192;-70
2023/01/16 04:49:24;;;;;;;0.30;0.30;;;1.90;99.90;;;;;;5052987;28;20455;-69
2023/01/16 04:51:50;;;;;;;0.40;0.40;;;1.80;99.90;;;;;;5052733;28;20250;-69
2023/01/16 04:54:17;;;;;;;0.30;0.30;;;1.80;99.90;;;;;;5053027;28;20178;-69
2023/01/16 04:56:43;;;;;;;0.30;0.30;;;1.80;99.90;;;;;;5053032;28;20168;-70
2023/01/16 04:59:10;;;;;;;0.40;0.40;;;1.90;99.90;;;;;;5052666;28;20199;-70
2023/01/16 05:01:37;;;;;;;0.30;0.30;;;1.90;99.90;;;;;;5052655;28;20180;-70
2023/01/16 05:04:04;;;;;;;0.30;0.30;;;1.80;99.90;;;;;;5052648;28;20259;-69
2023/01/16 05:06:30;;;;;;;0.40;0.40;;;1.70;99.90;;;;;;5052647;28;20181;-69
2023/01/16 05:08:55;;;;;;;0.40;0.40;;;1.70;99.90;;;;;;5052258;28;20206;-70
2023/01/16 05:11:21;;;;;;;0.40;0.40;;;1.80;99.90;;;;;;5050590;28;20793;-70
2023/01/16 05:13:46;;;;;;;1.50;1.50;;;1.80;99.90;;;;;;5052418;28;20176;-70
2023/01/16 05:16:12;;;;;;;0.40;0.40;;;1.80;99.90;;;;;;5052481;28;20176;-69
2023/01/16 05:18:38;;;;;;;0.30;0.30;;;2.00;99.90;;;;;;5055750;28;20216;-69
2023/01/16 05:21:04;;;;;;;0.40;0.40;;;1.90;99.90;;;;;;5056131;28;20204;-70
2023/01/16 05:23:33;;;;;;;0.43;0.43;;;1.90;99.90;;;;;;5056063;28;20171;-69
2023/01/16 05:25:59;;;;;;;0.40;0.40;;;1.80;99.90;;;;;;5056308;28;20589;-69
2023/01/16 05:28:25;;;;;;;0.38;0.38;;;1.80;99.90;;;;;;5055954;28;20591;-68
2023/01/16 05:30:50;;;;;;;0.30;0.30;;;1.80;99.90;;;;;;5056115;28;20204;-68
2023/01/16 05:33:16;;;;;;;0.30;0.30;;;1.90;99.90;;;;;;5054481;28;20937;-68
2023/01/16 05:35:42;;;;;;;0.30;0.30;;;1.90;99.90;;;;;;5056020;28;20202;-69
2023/01/16 05:38:08;;;;;;;0.30;0.30;;;1.90;99.90;;;;;;5055713;28;20218;-69
2023/01/16 05:40:33;;;;;;;1.37;1.27;;;1.90;99.90;;;;;;5055781;28;20446;-69
2023/01/16 05:42:59;;;;;;;0.30;0.30;;;1.80;99.90;;;;;;5055621;28;20537;-69
2023/01/16 05:45:24;;;;;;;0.30;0.30;;;1.80;99.90;;;;;;5055893;28;20192;-68
2023/01/16 05:47:50;;;;;;;0.33;0.33;;;1.80;99.90;;;;;;5055564;28;20228;-69
2023/01/16 05:50:16;;;;;;;0.30;0.30;;;1.80;99.90;;;;;;5055915;28;20229;-68
2023/01/16 05:52:41;;;;;;;0.40;0.40;;;1.80;99.90;;;;;;5055530;28;20165;-70
2023/01/16 05:55:07;;;;;;;0.30;0.30;;;1.80;99.90;;;;;;5055715;28;20527;-70
2023/01/16 05:57:33;;;;;;;0.70;0.70;;;1.70;99.90;;;;;;5055566;28;20188;-69
2023/01/16 05:59:58;;;;;;;0.50;0.50;;;1.60;99.90;;;;;;5055593;28;20184;-69
2023/01/16 06:02:24;;;;;;;0.30;0.30;;;1.50;99.90;;;;;;5055165;28;20172;-70
2023/01/16 06:04:50;;;;;;;0.50;0.50;;;1.40;99.90;;;;;;5055383;28;20651;-70
2023/01/16 06:07:15;;;;;;;0.40;0.40;;;1.50;99.90;;;;;;5055333;28;20195;-69
2023/01/16 06:09:41;;;;;;;0.30;0.30;;;1.60;99.90;;;;;;5055323;28;20196;-69
2023/01/16 06:12:07;;;;;;;0.40;0.40;;;1.60;99.90;;;;;;5054979;28;20399;-69
2023/01/16 06:14:34;;;;;;;0.40;0.40;;;1.60;99.90;;;;;;5055166;28;20447;-69
2023/01/16 06:16:59;;;;;;;0.30;0.30;;;1.70;99.90;;;;;;5055047;28;20264;-73
2023/01/16 06:19:25;;;;;;;0.90;0.90;;;1.80;99.90;;;;;;5054965;28;20276;-69
2023/01/16 06:21:51;;;;;;;0.30;0.30;;;1.70;99.90;;;;;;5055089;28;20167;-71
2023/01/16 06:24:16;;;;;;;0.30;0.30;;;1.80;99.90;;;;;;5054953;28;20164;-73
2023/01/16 06:26:42;;;;;;;0.30;0.30;;;1.80;99.90;;;;;;5055085;28;20200;-71
2023/01/16 06:29:09;;;;;;;0.30;0.30;;;1.80;99.90;;;;;;5054289;28;20283;-70
2023/01/16 06:31:34;;;;;;;0.70;0.70;;;1.80;99.90;;;;;;5054914;28;20622;-70
2023/01/16 06:34:00;;;;;;;0.40;0.40;;;1.80;99.90;;;;;;5054693;28;20261;-70
2023/01/16 06:36:26;;;;;;;0.40;0.40;;;1.90;99.90;;;;;;5053633;28;20290;-70
2023/01/16 06:38:51;;;;;;;0.40;0.40;;;1.80;99.90;;;;;;5053342;28;20200;-72
2023/01/16 06:41:17;;;;;;;0.30;0.30;;;1.80;99.90;;;;;;5054766;28;20188;-70
2023/01/16 06:43:42;;;;;;;0.40;0.40;;;1.70;99.90;;;;;;5054369;28;20208;-71
2023/01/16 06:46:08;;;;;;;0.30;0.30;;;1.60;99.90;;;;;;5054118;28;20653;-70
2023/01/16 06:48:34;;;;;;;0.40;0.40;;;1.50;99.90;;;;;;5054295;28;20203;-72
2023/01/16 06:51:00;;;;;;;0.40;0.40;;;1.50;99.90;;;;;;5054617;28;20178;-72
2023/01/16 06:53:26;;;;;;;0.40;0.40;;;1.60;99.90;;;;;;5054194;28;20235;-69
2023/01/16 06:55:52;;;;;;;0.30;0.30;;;1.60;99.90;;;;;;5054537;28;20395;-73
2023/01/16 06:58:17;;;;;;;0.40;0.40;;;1.70;99.90;;;;;;5054218;28;20209;-70
2023/01/16 07:00:44;;;;;;;0.63;0.63;;;1.80;99.90;;;;;;5054515;28;20630;-70
2023/01/16 07:03:10;;;;;;;0.60;0.60;;;1.80;99.90;;;;;;5054004;28;20239;-70
2023/01/16 07:05:36;;;;;;;0.40;0.40;;;1.80;99.90;;;;;;5054272;28;20181;-72
2023/01/16 07:08:02;;;;;;;0.40;0.40;;;1.80;99.90;;;;;;5054317;28;20196;-71
2023/01/16 07:10:28;;;;;;;0.40;0.40;;;1.80;99.90;;;;;;5054017;28;20463;-70
2023/01/16 07:12:54;;;;;;;0.30;0.30;;;1.90;99.90;;;;;;5053928;28;20565;-71
2023/01/16 07:23:55;;;;;;;0.40;0.40;;;2.10;99.90;;;;;;5052913;28;20340;-73
2023/01/16 07:26:21;;;;;;;0.40;0.40;;;2.10;99.90;;;;;;5052871;28;20173;-73
2023/01/16 07:28:49;;;;;;;0.32;0.32;;;2.20;99.90;;;;;;5052713;28;20196;-71
2023/01/16 07:31:15;;;;;;;0.40;0.40;;;2.20;99.90;;;;;;5052815;28;20190;-72
2023/01/16 07:33:41;;;;;;;0.60;0.60;;;2.20;99.90;;;;;;5052923;28;20508;-72
2023/01/16 07:36:07;;;;;;;0.83;0.60;;;2.30;99.90;;;;;;5053925;28;20179;-71
2023/01/16 07:38:32;;;;;;;0.40;0.40;;;2.30;99.90;;;;;;5053942;28;20193;-71
2023/01/16 07:40:58;;;;;;;0.50;0.50;;;2.40;99.90;;;;;;5053331;28;20407;-73
2023/01/16 07:43:23;;;;;;;0.50;0.50;;;2.40;99.90;;;;;;5053437;28;20171;-73
2023/01/16 07:45:51;;;;;;;1.33;1.23;;;2.40;99.90;;;;;;5053871;28;20170;-70
2023/01/16 07:48:18;;;;;;;0.40;0.40;;;2.50;99.90;;;;;;5053471;28;20189;-72
2023/01/16 07:50:50;;;;;;;0.40;0.40;;;2.60;99.90;;;;;;5052273;28;20209;-72
2023/01/16 07:53:16;;;;;;;0.70;0.70;;;2.60;99.90;;;;;;5053190;28;20172;-69
2023/01/16 07:55:41;;;;;;;0.30;0.30;;;2.60;99.90;;;;;;5053746;28;20513;-70
2023/01/16 07:58:07;;;;;;;0.40;0.40;;;2.60;99.90;;;;;;5053586;28;20264;-72
2023/01/16 08:00:33;;;;;;;0.40;0.40;;;2.60;99.90;;;;;;5053648;28;20170;-69
2023/01/16 08:02:59;;;;;;;2.35;0.82;;;2.60;99.90;;;;;;5053043;28;20205;-70
2023/01/16 08:05:24;;;;;;;0.40;0.40;;;2.60;99.90;;;;;;5053239;28;20174;-69
2023/01/16 08:07:50;;;;;;;0.83;0.80;;;2.70;99.90;;;;;;5053135;28;20205;-70
2023/01/16 08:10:16;;;;;;;0.40;0.40;;;2.80;99.90;;;;;;5051667;28;20212;-70
2023/01/16 08:12:41;;;;;;;0.50;0.50;;;2.80;99.90;;;;;;5053271;28;20166;-72
2023/01/16 08:15:07;;;;;;;0.70;0.70;;;2.90;99.90;;;;;;5053948;28;20524;-70
2023/01/16 08:17:33;;;;;;;0.40;0.40;;;2.80;99.70;;;;;;5053153;28;20190;-70
2023/01/16 08:19:59;;;;;;;1.20;1.20;;;2.80;99.80;;;;;;5053341;28;20427;-72
2023/01/16 08:22:24;;;;;;;0.40;0.40;;;2.90;99.90;;;;;;5053059;28;20201;-72
2023/01/16 08:24:50;;;;;;;0.40;0.40;;;2.80;99.70;;;;;;5053492;28;20219;-71
2023/01/16 08:27:15;;;;;;;0.80;0.80;;;2.80;99.80;;;;;;5053729;28;20193;-71
2023/01/16 08:29:41;;;;;;;0.57;0.57;;;2.80;99.80;;;;;;5053746;28;20284;-71
2023/01/16 08:32:06;;;;;;;4.23;2.23;;;2.70;99.80;;;;;;5053122;28;20534;-72
2023/01/16 08:34:32;;;;;;;1.30;0.63;;;2.70;99.90;;;;;;5053486;28;20167;-71
2023/01/16 08:36:58;;;;;;;0.40;0.40;;;2.80;99.90;;;;;;5053351;28;20167;-71
2023/01/16 08:39:25;;;;;;;0.60;0.60;;;2.70;99.90;;;;;;5053694;28;20194;-72
2023/01/16 08:52:59;;;;;;;0.50;0.50;;;3.10;99.90;;;;;;5056931;28;20566;-70
2023/01/16 08:55:25;;;;;;;1.33;1.33;;;3.10;99.90;;;;;;5056941;28;20171;-71
2023/01/16 08:57:51;;;;;;;1.80;1.10;;;3.20;99.70;;;;;;5056880;28;20226;-70
2023/01/16 09:00:19;;;;;;;2.20;1.27;;;3.30;99.60;;;;;;5056639;28;20230;-71
2023/01/16 09:02:45;;;;;;;0.30;0.30;;;3.40;99.70;;;;;;5056674;28;20193;-73
2023/01/16 09:05:13;;;;;;;1.30;0.90;;;3.40;99.10;;;;;;5056765;28;20639;-70
2023/01/16 09:07:39;;;;;;;0.50;0.50;;;3.40;99.10;;;;;;5056429;28;20936;-70
2023/01/16 09:10:05;;;;;;;0.30;0.30;;;3.40;99.10;;;;;;5056399;28;20206;-70
2023/01/16 09:15:15;;;;;;;5.20;1.15;;;3.30;99.10;;;;;;5056987;28;20550;-71
2023/01/16 09:17:42;;;;;;;0.30;0.30;;;3.10;99.20;;;;;;5056381;28;20228;-71
2023/01/16 09:20:08;;;;;;;0.40;0.40;;;3.10;99.60;;;;;;5056139;28;20193;-71
2023/01/16 09:22:34;;;;;;;0.40;0.40;;;3.10;99.90;;;;;;5056137;28;20170;-71
2023/01/16 09:25:00;;;;;;;0.40;0.40;;;3.30;99.90;;;;;;5056236;28;20180;-71
2023/01/16 09:27:25;;;;;;;1.13;1.07;;;3.30;99.90;;;;;;5055905;28;20201;-71
2023/01/16 09:29:51;;;;;;;0.50;0.50;;;3.40;99.90;;;;;;5056116;28;20501;-71
2023/01/16 09:32:18;;;;;;;1.27;0.67;;;3.40;99.70;;;;;;5055803;28;20167;-71
2023/01/16 09:34:44;;;;;;;1.35;1.35;;;3.40;99.50;;;;;;5055987;28;20400;-71
2023/01/16 09:37:10;;;;;;;0.40;0.40;;;3.30;99.40;;;;;;5056085;28;20202;-70
2023/01/16 09:39:36;;;;;;;0.63;0.63;;;3.40;99.90;;;;;;5056175;28;20171;-73
2023/01/16 09:45:01;;;;;;;0.38;0.38;;;3.40;99.50;;;;;;5055710;28;20641;-73
2023/01/16 09:47:29;;;;;;;0.50;0.50;;;3.50;99.50;;;;;;5055695;28;20217;-71
2023/01/16 09:50:03;;;;;;;0.40;0.40;;;3.50;99.60;;;;;;5055789;28;20201;-71
2023/01/16 09:58:36;;;;;;;1.05;1.05;;;3.40;99.60;;;;;;5056017;28;20216;-70
2023/01/16 10:01:06;;;;;;;0.40;0.40;;;3.40;99.50;;;;;;5056184;28;20505;-69
2023/01/16 10:03:32;;;;;;;0.30;0.30;;;3.40;99.30;;;;;;5054307;28;20248;-72
2023/01/16 10:06:13;;;;;;;3.85;1.20;;;3.30;98.80;;;;;;5055419;28;20174;-71
2023/01/16 10:08:56;;;;;;;0.30;0.30;;;3.40;98.90;;;;;;5055789;28;20255;-70
2023/01/16 10:11:32;;;;;;;0.30;0.30;;;3.60;99.20;;;;;;5055894;28;20162;-69
2023/01/16 10:14:07;;;;;;;0.40;0.40;;;3.70;99.30;;;;;;5055313;28;20645;-70
2023/01/16 10:16:53;;;;;;;0.40;0.40;;;3.70;99.30;;;;;;5055246;28;20177;-71
2023/01/16 10:19:52;;;;;;;0.40;0.40;;;3.70;99.50;;;;;;5055367;28;20214;-71
2023/01/16 10:22:34;;;;;;;0.40;0.40;;;3.60;99.80;;;;;;5055050;28;20249;-73
2023/01/16 10:25:16;;;;;;;0.68;0.68;;;3.70;99.90;;;;;;5055384;28;20212;-72
2023/01/16 10:27:55;;;;;;;1.10;1.08;;;3.80;99.90;;;;;;5054990;28;20217;-72
2023/01/16 10:30:29;;;;;;;2.58;0.98;;;3.90;99.90;;;;;;5053594;28;20190;-69
2023/01/16 10:33:06;;;;;;;0.40;0.40;;;3.90;99.90;;;;;;5054757;28;20224;-69
2023/01/16 10:35:45;;;;;;;0.40;0.40;;;4.00;99.90;;;;;;5054844;28;20177;-70
2023/01/16 10:38:29;;;;;;;0.40;0.40;;;4.10;99.90;;;;;;5054739;28;20190;-69
2023/01/16 10:40:56;;;;;;;0.98;0.98;;;4.10;99.90;;;;;;5054651;28;20171;-69
2023/01/16 10:49:27;;;;;;;0.40;0.40;;;4.20;99.60;;;;;;5054689;28;20205;-69
2023/01/16 10:51:58;;;;;;;0.40;0.40;;;4.30;99.70;;;;;;5054752;28;20296;-69
2023/01/16 10:54:24;;;;;;;3.00;2.90;;;4.30;99.40;;;;;;5053149;28;20167;-69
2023/01/16 10:56:50;;;;;;;4.47;4.10;;;4.40;99.40;;;;;;5052917;28;20185;-69
2023/01/16 10:59:17;;;;;;;0.40;0.40;;;4.40;99.20;;;;;;5053053;28;20181;-69
2023/01/16 11:01:45;;;;;;;0.40;0.40;;;4.40;98.50;;;;;;5053423;28;20423;-69
2023/01/16 11:04:12;;;;;;;0.60;0.60;;;4.40;98.60;;;;;;5054459;28;20265;-68
2023/01/16 11:06:40;;;;;;;1.15;1.10;;;4.50;98.80;;;;;;5054421;28;20387;-68
2023/01/16 11:09:17;;;;;;;2.60;0.95;;;4.40;98.50;;;;;;5054063;28;20202;-68
2023/01/16 11:20:28;;;;;;;0.85;0.85;;;4.20;98.70;;;;;;5054125;28;20252;-68
2023/01/16 11:23:12;;;;;;;0.30;0.30;;;4.30;98.40;;;;;;5054013;28;20170;-68
2023/01/16 11:25:38;;;;;;;0.40;0.40;;;4.30;98.30;;;;;;5054054;28;20216;-68
2023/01/16 11:28:09;;;;;;;1.05;1.05;;;4.30;98.40;;;;;;5053801;28;20280;-68
2023/01/16 11:30:42;;;;;;;0.38;0.38;;;4.30;98.40;;;;;;5053929;28;20243;-68
2023/01/16 11:33:19;;;;;;;1.13;0.85;;;4.20;98.40;;;;;;5052408;28;20170;-68
2023/01/16 11:35:56;;;;;;;0.60;0.60;;;4.30;98.60;;;;;;5053734;28;20539;-68
2023/01/16 11:38:23;;;;;;;0.40;0.40;;;4.40;98.70;;;;;;5053898;28;20209;-68
2023/01/16 11:40:50;;;;;;;0.40;0.40;;;4.40;98.60;;;;;;5053804;28;20170;-68
2023/01/16 11:46:28;;;;;;;0.40;0.40;;;4.30;98.50;;;;;;5054127;28;20185;-68
2023/01/16 11:49:05;;;;;;;0.40;0.40;;;4.30;98.60;;;;;;5049543;28;20210;-69
2023/01/16 11:51:36;;;;;;;0.40;0.40;;;4.30;98.60;;;;;;5053726;28;20166;-68
2023/01/16 11:54:03;;;;;;;0.40;0.40;;;4.40;98.70;;;;;;5053615;28;20208;-68
2023/01/16 11:57:14;;;;;;;0.75;0.75;;;4.40;98.60;;;;;;5053530;28;20631;-68
2023/01/16 11:59:48;;;;;;;0.30;0.30;;;4.40;98.60;;;;;;5051194;28;20188;-68
2023/01/16 12:02:51;;;;;;;0.40;0.40;;;4.50;98.50;;;;;;5053374;28;20634;-68
2023/01/16 12:08:09;;;;;;;0.70;0.70;;;4.50;98.30;;;;;;5053369;28;20201;-68
2023/01/16 12:10:48;;;;;;;0.52;0.52;;;4.40;98.20;;;;;;5053221;28;20194;-69
2023/01/16 12:16:31;;;;;;;0.30;0.30;;;4.50;98.10;;;;;;5053292;28;20235;-68
2023/01/16 12:19:06;;;;;;;0.40;0.40;;;4.40;98.10;;;;;;5053057;28;20197;-68
2023/01/16 12:21:45;;;;;;;0.40;0.40;;;4.40;98.30;;;;;;5053265;28;20165;-68
2023/01/16 12:24:55;;;;;;;0.40;0.40;;;4.40;98.20;;;;;;5053408;28;20178;-69
2023/01/16 12:27:39;;;;;;;1.13;1.13;;;4.30;98.10;;;;;;5056639;28;20218;-68
2023/01/16 12:30:42;;;;;;;0.30;0.30;;;4.30;98.40;;;;;;5057389;28;20193;-68
2023/01/16 12:33:32;;;;;;;0.40;0.40;;;4.30;98.50;;;;;;5045968;28;20181;-68
2023/01/16 12:36:12;;;;;;;0.40;0.40;;;4.20;98.70;;;;;;5057161;28;20534;-68
2023/01/16 12:39:13;;;;;;;0.68;0.68;;;4.20;98.70;;;;;;5057128;28;20221;-68
2023/01/16 12:45:17;;;;;;;0.63;0.63;;;3.70;99.90;;;;;;5057241;28;20188;-68
2023/01/16 12:48:08;;;;;;;0.40;0.40;;;3.50;99.90;;;;;;5056959;28;20206;-71
2023/01/16 12:51:05;;;;;;;0.40;0.40;;;3.40;99.90;;;;;;5054169;28;20205;-71
2023/01/16 12:54:02;;;;;;;0.30;0.30;;;3.50;99.90;;;;;;5056811;28;20173;-71
2023/01/16 12:56:42;;;;;;;0.40;0.40;;;3.60;99.90;;;;;;5056903;28;20173;-69
2023/01/16 12:59:39;;;;;;;0.35;0.35;;;3.60;99.90;;;;;;5056693;28;20193;-70
2023/01/16 13:02:16;;;;;;;0.40;0.40;;;3.60;99.90;;;;;;5056673;28;20174;-70
2023/01/16 13:04:47;;;;;;;0.30;0.30;;;3.40;99.90;;;;;;5055494;28;20174;-69
2023/01/16 13:07:17;;;;;;;0.40;0.40;;;3.60;99.90;;;;;;5056713;28;20216;-71
2023/01/16 13:15:39;;;;;;;0.30;0.30;;;3.60;99.90;;;;;;5056431;28;20189;-71
2023/01/16 13:18:18;;;;;;;0.30;0.30;;;3.60;99.90;;;;;;5056186;28;20236;-71
2023/01/16 13:20:46;;;;;;;0.40;0.40;;;3.60;99.90;;;;;;5056404;28;20185;-72
2023/01/16 13:23:22;;;;;;;0.40;0.40;;;3.80;99.90;;;;;;5056198;28;20257;-70
2023/01/16 13:25:56;;;;;;;0.40;0.40;;;3.80;99.90;;;;;;5056464;28;20161;-71
2023/01/16 13:28:42;;;;;;;0.60;0.60;;;3.90;99.90;;;;;;5056141;28;20189;-71
2023/01/16 13:31:19;;;;;;;0.93;0.93;;;4.10;99.90;;;;;;5056280;28;20193;-70
2023/01/16 13:33:49;;;;;;;0.30;0.30;;;4.10;99.90;;;;;;5056008;28;20196;-69
2023/01/16 13:36:34;;;;;;;0.38;0.38;;;4.20;99.80;;;;;;5056159;28;20166;-72
2023/01/16 13:39:31;;;;;;;0.40;0.40;;;4.20;99.40;;;;;;5054874;28;20190;-70
2023/01/16 13:41:58;;;;;;;0.40;0.40;;;4.00;99.50;;;;;;5055965;28;20166;-72
2023/01/16 13:47:24;;;;;;;0.30;0.30;;;4.10;99.60;;;;;;5055814;28;20723;-71
2023/01/16 13:49:59;;;;;;;0.40;0.40;;;4.20;99.70;;;;;;5055717;28;20199;-71
2023/01/16 13:52:27;;;;;;;0.40;0.40;;;4.30;99.20;;;;;;5055694;28;20542;-71
2023/01/16 13:54:57;;;;;;;0.50;0.50;;;4.20;99.10;;;;;;5056073;28;20547;-71
2023/01/16 13:57:27;;;;;;;0.40;0.40;;;4.10;99.20;;;;;;5055556;28;20190;-70
2023/01/16 13:59:55;;;;;;;0.40;0.40;;;4.10;99.30;;;;;;5055607;28;20192;-69
2023/01/16 14:02:36;;;;;;;0.40;0.40;;;4.20;99.30;;;;;;5054185;28;20256;-69
2023/01/16 14:05:16;;;;;;;0.40;0.40;;;4.20;99.20;;;;;;5055596;28;20173;-71
2023/01/16 14:10:42;;;;;;;0.40;0.40;;;4.10;99.30;;;;;;5055402;28;20209;-71
2023/01/16 14:13:23;;;;;;;0.55;0.55;;;4.10;99.30;;;;;;5055111;28;20225;-72
2023/01/16 14:19:13;;;;;;;0.30;0.30;;;4.10;99.20;;;;;;5055174;28;20646;-69
2023/01/16 14:24:00;;;;;;;1.30;0.50;;;4.20;99.30;;;;;;5055024;28;20178;-69
2023/01/16 14:24:28;;;;;;;0.40;0.40;;;4.20;99.30;;;;;;5054691;28;20267;-68
2023/01/16 14:26:59;;;;;;;1.30;1.20;;;4.40;99.30;;;;;;5055210;28;20190;-71
2023/01/16 14:29:35;;;;;;;0.40;0.40;;;4.40;99.00;;;;;;5054918;28;20194;-71
2023/01/16 14:32:05;;;;;;;0.40;0.40;;;4.40;99.00;;;;;;5054909;28;20170;-70
2023/01/16 14:34:44;;;;;;;2.85;2.58;;;4.40;99.00;;;;;;5053823;28;20182;-69
2023/01/16 14:37:46;;;;;;;0.50;0.50;;;4.40;98.80;;;;;;5055231;28;20162;-73